Flugplatz Paderborn-Haxterberg

Für EDLR sind keine METAR/TAF Berichte vorhanden.
Es werden die Flugwettermeldungen vom Flugplatz Paderborn Lippstadt in 13 km Entfernung angezeigt.

Bericht für EDLP

vom 15.07. um 18:20 UTC

Wind 6 kt aus 270°

Sichtweite 10 km oder mehr

gute Sicht, keine Wolken < 5000 ft, keine CB, keine Wettererscheinungen (CAVOK)

Temperatur 18.0°C

Taupunkt 8.0°C

Luftfeuchtigkeit 52%

Luftdruck 1014 hPa

EDLP 151820Z 27006KT 220V320 CAVOK 18/08 Q1014

Prognose für EDLP

vom 15.07. um 17:00 UTC

Zwischen 18:00 UTC und 19:00 UTC

Wind 7 kt aus 280°

Sichtweite 10 km oder mehr

aufgebrochene Bewölkung in 3000 ft


Zwischen 19:00 und 22:00 UTC übergehend zu

variable Windrichtung mit 3 kt

Sichtweite 10 km oder mehr

aufgebrochene Bewölkung in 3000 ft


Am 16.07. zwischen 04:00 UTC und 15:00 UTC zeitweise

Sichtweite 4000 m

schwacher Regen

schwacher Sprühregen

feuchter Dunst

aufgebrochene Bewölkung in 1200 ft


Am 16.07. zwischen 06:00 UTC und 10:00 UTC zeitweise mit einer Wahrscheinlichkeit von 30%

aufgebrochene Bewölkung in 600 ft


Am 16.07. zwischen 11:00 UTC und 16:00 UTC zeitweise

Wind 5 kt aus 280°

TAF EDLP 151700Z 1518/1618 28007KT 9999 BKN030 BECMG 1519/1522 VRB03KT TEMPO 1604/1615 4000 -RADZ BR BKN012 PROB30 TEMPO 1606/1610 BKN006 TEMPO 1611/1616 28005KT
Impressum